Time;durP1;ratioP1;P1;durP2;ratioP2;P2;SDS_P1;SDS_P2;PMS_P1;PMS_P2;Temp;Humidity;BMP_temperature;BMP_pressure;BME280_temperature;BME280_humidity;BME280_pressure;Samples;Min_cycle;Max_cycle;Signal;HPM_P1;HPM_P2
2022/01/06 00:01:08;;;;;;;1.13;0.60;;;;;;;17.59;64.36;97329.91;3098313;28;20061;-55
2022/01/06 00:02:39;;;;;;;0.63;0.60;;;;;;;17.58;64.36;97333.66;3099226;28;20061;-56
2022/01/06 00:04:13;;;;;;;0.75;0.75;;;;;;;17.57;64.51;97345.41;3100343;28;20710;-55
2022/01/06 00:05:44;;;;;;;1.27;1.15;;;;;;;17.57;64.48;97352.63;3097196;28;20512;-53
2022/01/06 00:07:16;;;;;;;0.75;0.68;;;;;;;17.55;64.37;97349.34;3098076;28;20045;-57
2022/01/06 00:08:48;;;;;;;0.68;0.60;;;;;;;17.54;64.62;97353.91;3096981;28;20046;-55
2022/01/06 00:10:19;;;;;;;0.80;0.60;;;;;;;17.53;64.43;97348.78;3091481;28;20050;-56
2022/01/06 00:11:51;;;;;;;0.77;0.77;;;;;;;17.52;64.65;97355.16;3096964;28;20127;-54
2022/01/06 00:13:29;;;;;;;1.40;0.80;;;;;;;17.52;64.56;97365.91;3093498;28;20105;-55
2022/01/06 00:15:07;;;;;;;0.80;0.80;;;;;;;17.51;64.49;97369.63;3092755;28;20058;-55
2022/01/06 00:16:45;;;;;;;0.82;0.75;;;;;;;17.48;64.51;97376.25;3094973;28;20104;-56
2022/01/06 00:18:26;;;;;;;1.25;1.02;;;;;;;17.49;64.45;97377.88;3098396;28;20133;-54
2022/01/06 00:23:39;;;;;;;0.73;0.70;;;;;;;17.47;64.49;97395.25;3097768;28;20054;-53
2022/01/06 00:25:11;;;;;;;0.98;0.77;;;;;;;17.46;64.62;97393.63;3088081;28;20836;-54
2022/01/06 00:26:43;;;;;;;1.73;0.80;;;;;;;17.45;64.40;97395.47;3097315;28;20053;-53
2022/01/06 00:28:15;;;;;;;2.42;0.73;;;;;;;17.43;64.48;97384.97;3094696;28;20056;-54
2022/01/06 00:29:47;;;;;;;0.95;0.63;;;;;;;17.43;64.47;97389.53;3098725;28;20693;-55
2022/01/06 00:31:19;;;;;;;1.00;0.90;;;;;;;17.42;64.52;97396.75;3098959;28;21158;-54
2022/01/06 00:32:51;;;;;;;1.55;0.70;;;;;;;17.42;64.55;97394.06;3097502;28;20050;-52
2022/01/06 00:34:23;;;;;;;1.40;1.00;;;;;;;17.41;64.62;97394.28;3093967;28;20045;-53
2022/01/06 00:35:57;;;;;;;0.73;0.70;;;;;;;17.40;64.52;97389.97;3096978;28;20100;-55
2022/01/06 00:37:28;;;;;;;0.75;0.60;;;;;;;17.39;64.52;97350.84;3086981;28;20149;-53
2022/01/06 00:39:00;;;;;;;1.08;0.82;;;;;;;17.38;64.70;97382.19;3098216;28;20099;-55
2022/01/06 00:40:32;;;;;;;0.75;0.73;;;;;;;17.39;64.56;97372.28;3097243;28;20272;-52
2022/01/06 00:42:04;;;;;;;0.70;0.70;;;;;;;17.38;64.55;97387.53;3098893;28;20084;-56
2022/01/06 00:43:36;;;;;;;1.63;0.80;;;;;;;17.37;64.49;97379.72;3095971;28;20080;-55
2022/01/06 00:45:09;;;;;;;1.60;0.73;;;;;;;17.36;64.45;97388.81;3095817;28;20058;-55
2022/01/06 00:46:41;;;;;;;1.17;0.80;;;;;;;17.36;64.59;97378.09;3096137;28;20048;-54
2022/01/06 00:48:14;;;;;;;0.60;0.60;;;;;;;17.33;64.55;97395.44;3094783;28;20108;-54
2022/01/06 00:49:46;;;;;;;2.05;0.70;;;;;;;17.34;64.62;97390.88;3101755;28;20585;-55
2022/01/06 00:51:19;;;;;;;0.77;0.75;;;;;;;17.33;64.66;97397.31;3099922;28;20104;-52
2022/01/06 00:52:51;;;;;;;0.90;0.90;;;;;;;17.30;64.56;97413.81;3094966;28;20488;-54
2022/01/06 00:54:23;;;;;;;0.90;0.77;;;;;;;17.30;64.67;97417.31;3099898;28;20046;-55
2022/01/06 00:55:55;;;;;;;1.38;0.65;;;;;;;17.30;64.48;97403.09;3095400;28;20108;-53
2022/01/06 00:57:26;;;;;;;0.88;0.80;;;;;;;17.30;64.57;97429.88;3094036;28;20424;-58
2022/01/06 00:58:58;;;;;;;1.58;0.93;;;;;;;17.30;64.59;97437.91;3102691;28;20651;-56
2022/01/06 01:00:38;;;;;;;0.73;0.73;;;;;;;17.29;64.49;97428.25;3095280;28;20054;-53
2022/01/06 01:02:10;;;;;;;1.27;0.65;;;;;;;17.29;64.52;97439.78;3096588;28;20058;-54
2022/01/06 01:03:41;;;;;;;0.70;0.65;;;;;;;17.28;64.44;97456.91;3095090;28;20419;-55
2022/01/06 01:05:13;;;;;;;0.90;0.63;;;;;;;17.28;64.54;97461.47;3091128;28;20038;-56
2022/01/06 01:06:46;;;;;;;0.55;0.55;;;;;;;17.27;64.49;97449.91;3098917;28;20066;-55
2022/01/06 01:08:18;;;;;;;0.77;0.70;;;;;;;17.27;64.46;97462.50;3101242;28;20076;-54
2022/01/06 01:09:50;;;;;;;0.70;0.70;;;;;;;17.25;64.49;97456.56;3094644;28;20982;-55
2022/01/06 01:11:22;;;;;;;0.90;0.90;;;;;;;17.25;64.41;97459.25;3094225;28;20050;-57
2022/01/06 01:12:54;;;;;;;1.00;0.60;;;;;;;17.24;64.58;97470.97;3096499;28;20104;-55
2022/01/06 01:14:28;;;;;;;0.47;0.43;;;;;;;17.23;64.41;97478.19;3090646;28;20576;-52
2022/01/06 01:16:10;;;;;;;1.15;0.95;;;;;;;17.22;64.62;97473.06;3098371;28;20041;-56
2022/01/06 01:17:42;;;;;;;1.50;1.08;;;;;;;17.22;64.49;97478.41;3096654;28;20081;-53
2022/01/06 01:19:14;;;;;;;0.80;0.60;;;;;;;17.20;64.57;97492.06;3096379;28;20046;-53
2022/01/06 01:20:46;;;;;;;2.83;0.80;;;;;;;17.17;64.55;97490.63;3095674;28;20050;-55
2022/01/06 01:22:20;;;;;;;1.33;0.70;;;;;;;17.17;64.54;97490.63;3096588;28;20131;-56
2022/01/06 01:23:51;;;;;;;0.95;0.73;;;;;;;17.19;64.59;97493.09;3092288;28;20096;-55
2022/01/06 01:25:23;;;;;;;0.75;0.57;;;;;;;17.15;64.56;97487.34;3095535;28;20045;-55
2022/01/06 01:26:55;;;;;;;1.08;0.70;;;;;;;17.14;64.59;97488.41;3097404;28;20054;-60
2022/01/06 01:28:33;;;;;;;1.17;0.60;;;;;;;17.13;64.47;97486.78;3093155;28;20046;-55
2022/01/06 01:30:11;;;;;;;0.40;0.38;;;;;;;17.14;64.52;97484.91;3095169;28;20665;-58
2022/01/06 01:31:46;;;;;;;1.52;1.42;;;;;;;17.12;64.65;97485.13;3095844;28;20638;-55
2022/01/06 01:33:18;;;;;;;0.47;0.43;;;;;;;17.11;64.47;97494.19;3096911;28;20389;-56
2022/01/06 01:34:59;;;;;;;1.08;0.80;;;;;;;17.11;64.63;97498.75;3096520;28;20050;-57
2022/01/06 01:36:30;;;;;;;1.15;0.85;;;;;;;17.10;64.64;97502.44;3095891;28;20136;-53
2022/01/06 01:38:04;;;;;;;1.90;1.05;;;;;;;17.08;64.60;97512.59;3095711;28;20081;-56
2022/01/06 01:39:35;;;;;;;0.57;0.47;;;;;;;17.07;64.57;97513.59;3095640;28;20638;-54
2022/01/06 01:41:09;;;;;;;0.95;0.65;;;;;;;17.06;64.62;97518.16;3098897;28;20107;-55
2022/01/06 01:42:41;;;;;;;0.98;0.82;;;;;;;17.06;64.64;97526.19;3092962;28;20045;-56
2022/01/06 01:44:15;;;;;;;1.05;0.68;;;;;;;17.05;64.64;97532.59;3091227;28;20088;-53
2022/01/06 01:45:54;;;;;;;0.93;0.63;;;;;;;17.04;64.68;97530.94;3092371;28;20069;-56
2022/01/06 01:47:31;;;;;;;0.80;0.75;;;;;;;17.04;64.66;97538.16;3097111;28;20567;-54
2022/01/06 01:50:54;;;;;;;1.02;0.80;;;;;;;17.01;64.70;97525.22;3093079;28;20077;-57
2022/01/06 01:52:25;;;;;;;0.60;0.50;;;;;;;17.00;64.80;97534.28;3097679;28;20073;-56
2022/01/06 01:53:58;;;;;;;1.17;0.88;;;;;;;16.98;64.65;97542.53;3091470;28;20050;-56
2022/01/06 01:55:32;;;;;;;0.85;0.80;;;;;;;16.97;64.69;97551.63;3094542;28;20089;-59
2022/01/06 01:57:05;;;;;;;0.85;0.82;;;;;;;16.96;64.76;97544.59;3097180;28;20061;-56
2022/01/06 01:58:37;;;;;;;0.68;0.57;;;;;;;16.95;64.74;97537.63;3098800;28;20108;-57
2022/01/06 02:00:12;;;;;;;0.47;0.47;;;;;;;16.93;64.81;97540.50;3098328;28;20578;-54
2022/01/06 02:01:44;;;;;;;0.93;0.50;;;;;;;16.94;64.92;97552.88;3098784;28;20080;-56
2022/01/06 02:03:15;;;;;;;0.80;0.80;;;;;;;16.93;64.77;97547.72;3094489;28;20054;-56
2022/01/06 02:04:50;;;;;;;1.17;0.90;;;;;;;16.92;64.80;97560.31;3098673;28;20054;-57
2022/01/06 02:06:22;;;;;;;0.60;0.50;;;;;;;16.91;64.75;97558.69;3093015;28;20554;-54
2022/01/06 02:07:56;;;;;;;1.27;0.57;;;;;;;16.89;64.90;97554.56;3093910;28;20050;-56
2022/01/06 02:09:29;;;;;;;0.70;0.60;;;;;;;16.89;64.86;97565.28;3095439;28;20684;-56
2022/01/06 02:11:01;;;;;;;0.85;0.70;;;;;;;16.87;64.76;97551.28;3090380;28;20054;-54
2022/01/06 02:12:36;;;;;;;0.75;0.60;;;;;;;16.88;64.94;97555.59;3094701;28;20050;-55
2022/01/06 02:14:08;;;;;;;0.95;0.80;;;;;;;16.87;64.93;97556.66;3097064;28;20056;-53
2022/01/06 02:15:40;;;;;;;0.65;0.50;;;;;;;16.85;64.89;97556.03;3098510;28;20528;-54
2022/01/06 02:17:12;;;;;;;0.55;0.55;;;;;;;16.83;64.90;97561.63;3096173;28;21081;-55
2022/01/06 02:18:44;;;;;;;0.60;0.55;;;;;;;16.83;64.94;97576.88;3099518;28;20700;-54
2022/01/06 02:20:19;;;;;;;1.23;0.75;;;;;;;16.83;64.90;97558.13;3095791;28;20050;-56
2022/01/06 02:21:51;;;;;;;0.60;0.50;;;;;;;16.80;64.97;97559.38;3093563;28;20062;-55
2022/01/06 02:23:23;;;;;;;0.60;0.60;;;;;;;16.80;64.93;97574.59;3097016;28;20049;-55
2022/01/06 02:24:55;;;;;;;0.60;0.60;;;;;;;16.79;64.80;97570.31;3095499;28;21273;-57
2022/01/06 02:26:27;;;;;;;0.88;0.70;;;;;;;16.77;65.04;97573.22;3095272;28;20145;-55
2022/01/06 02:28:02;;;;;;;0.70;0.60;;;;;;;16.77;64.99;97567.00;3087176;28;20046;-56
2022/01/06 02:29:34;;;;;;;0.60;0.55;;;;;;;16.75;64.98;97581.41;3093819;28;20050;-57
2022/01/06 02:31:06;;;;;;;1.13;0.90;;;;;;;16.75;64.94;97585.97;3096843;28;20415;-54
2022/01/06 02:32:38;;;;;;;1.50;0.50;;;;;;;16.73;65.05;97588.84;3097891;28;20053;-55
2022/01/06 02:34:10;;;;;;;0.65;0.50;;;;;;;16.73;64.99;97580.81;3096762;28;20046;-56
2022/01/06 02:35:44;;;;;;;0.68;0.68;;;;;;;16.73;64.95;97585.34;3095458;28;20545;-53
2022/01/06 02:37:15;;;;;;;1.02;0.70;;;;;;;16.71;64.97;97587.41;3090559;28;20631;-54
2022/01/06 02:38:47;;;;;;;0.63;0.50;;;;;;;16.70;65.01;97583.09;3099077;28;20099;-52
2022/01/06 02:40:21;;;;;;;0.88;0.88;;;;;;;16.69;65.15;97581.47;3094984;28;20098;-54
2022/01/06 02:41:53;;;;;;;0.50;0.50;;;;;;;16.68;65.08;97580.63;3093014;28;20050;-55
2022/01/06 02:43:25;;;;;;;0.70;0.70;;;;;;;16.67;65.09;97588.91;3097242;28;20148;-52
2022/01/06 02:44:56;;;;;;;0.73;0.63;;;;;;;16.67;65.06;97588.91;3088458;28;20050;-57
2022/01/06 02:46:28;;;;;;;0.40;0.40;;;;;;;16.66;64.99;97592.59;3094678;28;20099;-56
2022/01/06 02:48:08;;;;;;;0.63;0.63;;;;;;;16.65;65.01;97594.44;3093963;28;20055;-56
2022/01/06 02:49:40;;;;;;;0.47;0.47;;;;;;;16.65;65.04;97605.16;3097312;28;20132;-57
2022/01/06 02:51:13;;;;;;;1.35;0.75;;;;;;;16.63;65.14;97593.88;3092700;28;20600;-53
2022/01/06 02:52:45;;;;;;;0.80;0.60;;;;;;;16.63;65.10;97609.94;3094324;28;20128;-56
2022/01/06 02:54:17;;;;;;;0.82;0.60;;;;;;;16.61;65.10;97606.66;3092436;28;20053;-55
2022/01/06 02:55:53;;;;;;;1.00;0.65;;;;;;;16.61;65.02;97609.31;3097232;28;20057;-55
2022/01/06 02:57:25;;;;;;;0.68;0.47;;;;;;;16.59;65.26;97621.28;3096824;28;20061;-55
2022/01/06 02:58:57;;;;;;;0.50;0.45;;;;;;;16.59;65.07;97614.06;3100205;28;20049;-55
2022/01/06 03:00:29;;;;;;;0.30;0.30;;;;;;;16.58;65.17;97607.06;3097584;28;20057;-56
2022/01/06 03:02:00;;;;;;;0.50;0.45;;;;;;;16.57;65.10;97610.78;3088862;28;20057;-52
2022/01/06 03:03:32;;;;;;;0.40;0.30;;;;;;;16.56;65.28;97614.50;3097329;28;20174;-56
2022/01/06 03:05:06;;;;;;;0.70;0.60;;;;;;;16.56;65.12;97617.16;3094511;28;20104;-54
2022/01/06 03:06:39;;;;;;;1.15;0.90;;;;;;;16.57;65.09;97621.47;3095616;28;20112;-55
2022/01/06 03:08:11;;;;;;;0.70;0.50;;;;;;;16.57;65.03;97615.31;3094164;28;20053;-57
2022/01/06 03:09:44;;;;;;;0.50;0.40;;;;;;;16.58;65.08;97604.41;3094303;28;20054;-52
2022/01/06 03:11:16;;;;;;;0.50;0.50;;;;;;;16.58;65.05;97612.44;3092256;28;21000;-53
2022/01/06 03:12:48;;;;;;;0.93;0.68;;;;;;;16.59;65.09;97603.34;3094807;28;20054;-55
2022/01/06 03:14:20;;;;;;;0.70;0.68;;;;;;;16.61;65.11;97600.47;3095021;28;20416;-56
2022/01/06 03:15:52;;;;;;;0.50;0.50;;;;;;;16.62;65.05;97600.25;3097278;28;20069;-54
2022/01/06 03:17:24;;;;;;;0.63;0.55;;;;;;;16.61;65.18;97601.28;3099571;28;20056;-56
2022/01/06 03:18:56;;;;;;;0.73;0.70;;;;;;;16.63;65.08;97604.59;3094213;28;20107;-54
2022/01/06 03:20:29;;;;;;;0.50;0.50;;;;;;;16.64;65.09;97600.03;3095103;28;20807;-50
2022/01/06 03:22:02;;;;;;;0.80;0.70;;;;;;;16.66;65.07;97601.47;3094488;28;20081;-50
2022/01/06 03:23:34;;;;;;;0.98;0.57;;;;;;;16.64;65.10;97600.84;3095172;28;20129;-55
2022/01/06 03:25:08;;;;;;;0.57;0.40;;;;;;;16.65;65.11;97593.63;3095757;28;20104;-56
2022/01/06 03:26:40;;;;;;;1.27;0.65;;;;;;;16.67;65.15;97592.38;3096217;28;20104;-53
2022/01/06 03:28:12;;;;;;;0.60;0.60;;;;;;;16.67;65.08;97599.59;3097950;28;20132;-54
2022/01/06 03:29:44;;;;;;;0.40;0.40;;;;;;;16.67;65.09;97605.78;3100262;28;20570;-54
2022/01/06 03:31:16;;;;;;;0.52;0.40;;;;;;;16.66;65.07;97601.47;3095865;28;20050;-56
2022/01/06 03:32:48;;;;;;;0.40;0.40;;;;;;;16.67;64.92;97608.44;3101759;28;20054;-53
2022/01/06 03:34:20;;;;;;;0.50;0.50;;;;;;;16.68;65.06;97596.69;3098055;28;20635;-54
2022/01/06 03:35:52;;;;;;;0.85;0.60;;;;;;;16.66;64.98;97596.13;3094797;28;20046;-57
2022/01/06 03:37:26;;;;;;;1.30;0.55;;;;;;;16.67;65.03;97603.09;3096319;28;20046;-54
2022/01/06 03:38:57;;;;;;;0.57;0.50;;;;;;;16.67;64.98;97605.78;3094322;28;20045;-58
2022/01/06 03:40:29;;;;;;;0.50;0.40;;;;;;;16.68;65.13;97611.94;3095922;28;20049;-55
2022/01/06 03:42:01;;;;;;;0.63;0.47;;;;;;;16.67;64.97;97599.59;3096849;28;20076;-55
2022/01/06 03:43:33;;;;;;;0.50;0.32;;;;;;;16.68;64.92;97611.94;3098083;28;20050;-53
2022/01/06 03:45:07;;;;;;;0.98;0.65;;;;;;;16.66;64.99;97614.84;3101101;28;20053;-58
2022/01/06 03:46:39;;;;;;;0.57;0.57;;;;;;;16.68;65.01;97618.13;3099654;28;20050;-54
2022/01/06 03:48:11;;;;;;;0.60;0.60;;;;;;;16.67;64.94;97613.00;3097074;28;20420;-55
2022/01/06 03:49:43;;;;;;;0.40;0.40;;;;;;;16.68;65.02;97617.28;3096783;28;20049;-57
2022/01/06 03:51:16;;;;;;;0.25;0.25;;;;;;;16.66;64.96;97617.53;3096703;28;20046;-54
2022/01/06 03:52:49;;;;;;;0.43;0.38;;;;;;;16.66;64.87;97614.84;3099481;28;20554;-52
2022/01/06 03:54:21;;;;;;;2.85;0.77;;;;;;;16.66;65.00;97620.22;3095257;28;20042;-55
2022/01/06 03:55:53;;;;;;;0.77;0.55;;;;;;;16.66;64.84;97617.53;3098020;28;20531;-56
2022/01/06 03:57:25;;;;;;;0.90;0.43;;;;;;;16.65;64.86;97633.78;3093736;28;20124;-55
2022/01/06 03:58:58;;;;;;;0.50;0.50;;;;;;;16.66;64.95;97628.25;3101770;28;20724;-55
2022/01/06 04:00:30;;;;;;;0.50;0.50;;;;;;;16.65;64.96;97631.94;3096797;28;20074;-56
2022/01/06 04:02:02;;;;;;;0.73;0.40;;;;;;;16.64;64.88;97622.28;3096699;28;20565;-52
2022/01/06 04:03:34;;;;;;;0.30;0.30;;;;;;;16.65;65.00;97629.25;3099534;28;20113;-55
2022/01/06 04:05:07;;;;;;;0.63;0.40;;;;;;;16.64;64.98;97621.47;3095725;28;20688;-56
2022/01/06 04:06:39;;;;;;;0.40;0.30;;;;;;;16.62;65.05;97629.69;3100624;28;20512;-53
2022/01/06 04:08:13;;;;;;;0.80;0.57;;;;;;;16.63;65.00;97635.84;3100100;28;20050;-56
2022/01/06 04:09:44;;;;;;;0.38;0.38;;;;;;;16.63;65.17;97642.06;3096316;28;20108;-54
2022/01/06 04:11:16;;;;;;;0.77;0.50;;;;;;;16.61;65.05;97630.75;3095698;28;20115;-54
2022/01/06 04:12:48;;;;;;;0.50;0.50;;;;;;;16.61;64.93;97625.38;3098512;28;20069;-55
2022/01/06 04:14:19;;;;;;;0.55;0.55;;;;;;;16.62;65.01;97637.72;3099415;28;20053;-54
2022/01/06 04:15:51;;;;;;;0.57;0.30;;;;;;;16.62;65.00;97639.59;3100396;28;20042;-55
2022/01/06 04:17:25;;;;;;;0.63;0.35;;;;;;;16.62;64.97;97647.63;3091729;28;20069;-52
2022/01/06 04:18:56;;;;;;;0.57;0.57;;;;;;;16.61;65.02;97651.34;3096319;28;20133;-55
2022/01/06 04:20:28;;;;;;;0.50;0.50;;;;;;;16.60;64.84;97642.47;3096159;28;20068;-56
2022/01/06 04:22:00;;;;;;;0.57;0.43;;;;;;;16.60;64.72;97653.16;3098510;28;20065;-56
2022/01/06 04:23:34;;;;;;;0.63;0.60;;;;;;;16.60;64.98;97645.13;3099842;28;20053;-54
2022/01/06 04:25:06;;;;;;;0.70;0.43;;;;;;;16.59;64.85;97661.44;3096895;28;20041;-51
2022/01/06 04:26:38;;;;;;;0.40;0.40;;;;;;;16.59;64.95;97659.56;3099965;28;20046;-54
2022/01/06 04:28:10;;;;;;;0.40;0.30;;;;;;;16.59;64.83;97667.59;3098181;28;20054;-58
2022/01/06 04:29:42;;;;;;;0.60;0.60;;;;;;;16.58;64.77;97676.69;3095872;28;20136;-56
2022/01/06 04:31:14;;;;;;;0.30;0.30;;;;;;;16.58;64.83;97670.50;3097595;28;20053;-56
2022/01/06 04:32:46;;;;;;;0.43;0.40;;;;;;;16.57;64.98;97680.38;3099958;28;20064;-56
2022/01/06 04:34:17;;;;;;;0.50;0.32;;;;;;;16.56;64.89;97676.06;3092976;28;20046;-58
2022/01/06 04:35:48;;;;;;;1.08;0.50;;;;;;;16.56;64.85;97681.41;3089546;28;20104;-52
2022/01/06 04:37:20;;;;;;;0.65;0.52;;;;;;;16.54;64.96;97680.81;3095440;28;20041;-54
2022/01/06 04:38:54;;;;;;;1.20;0.90;;;;;;;16.53;64.88;97679.16;3096272;28;20054;-54
2022/01/06 04:40:26;;;;;;;0.70;0.43;;;;;;;16.53;64.84;97679.16;3094403;28;20108;-53
2022/01/06 04:41:57;;;;;;;0.30;0.30;;;;;;;16.52;65.01;97682.88;3096320;28;20042;-55
2022/01/06 04:43:28;;;;;;;0.30;0.30;;;;;;;16.51;64.84;97681.22;3097742;28;20058;-55
2022/01/06 04:45:01;;;;;;;0.57;0.38;;;;;;;16.51;65.03;97694.63;3091863;28;20054;-56
2022/01/06 04:46:33;;;;;;;0.40;0.30;;;;;;;16.51;64.81;97683.91;3094150;28;20042;-56
2022/01/06 04:48:05;;;;;;;0.57;0.43;;;;;;;16.51;64.93;97686.59;3093421;28;20742;-57
2022/01/06 04:49:37;;;;;;;0.40;0.30;;;;;;;16.49;64.87;97694.84;3092345;28;20046;-53
2022/01/06 04:51:09;;;;;;;0.90;0.60;;;;;;;16.49;64.97;97702.03;3093842;28;20092;-56
2022/01/06 04:52:41;;;;;;;0.50;0.32;;;;;;;16.48;64.94;97700.41;3095823;28;20728;-51
2022/01/06 04:54:14;;;;;;;0.35;0.35;;;;;;;16.48;64.91;97700.41;3092102;28;20539;-56
2022/01/06 04:55:46;;;;;;;0.35;0.35;;;;;;;16.46;64.88;97697.09;3090120;28;20105;-53
2022/01/06 04:57:18;;;;;;;0.35;0.35;;;;;;;16.45;64.94;97700.81;3092663;28;20115;-54
2022/01/06 04:58:50;;;;;;;0.50;0.47;;;;;;;16.45;64.91;97700.81;3094411;28;20069;-55
2022/01/06 05:00:22;;;;;;;0.45;0.40;;;;;;;16.44;64.93;97702.69;3094583;28;20120;-59
2022/01/06 05:01:54;;;;;;;0.50;0.40;;;;;;;16.42;64.97;97702.06;3094627;28;20057;-58
2022/01/06 05:03:26;;;;;;;0.60;0.50;;;;;;;16.42;64.97;97703.94;3090082;28;20057;-58
2022/01/06 05:04:57;;;;;;;0.30;0.30;;;;;;;16.41;64.95;97703.09;3091714;28;20050;-55
2022/01/06 05:06:29;;;;;;;0.50;0.50;;;;;;;16.39;64.91;97697.13;3092928;28;20081;-50
2022/01/06 05:08:01;;;;;;;0.75;0.40;;;;;;;16.40;64.83;97681.91;3096001;28;20052;-54
2022/01/06 05:09:34;;;;;;;0.40;0.40;;;;;;;16.40;64.98;97680.03;3093829;28;20670;-53
2022/01/06 05:11:06;;;;;;;0.60;0.60;;;;;;;16.41;64.88;97695.06;3091821;28;20050;-53
2022/01/06 05:12:40;;;;;;;0.68;0.52;;;;;;;16.43;65.01;97700.19;3093725;28;20062;-55
2022/01/06 05:14:12;;;;;;;0.47;0.40;;;;;;;16.47;64.97;97707.59;3096134;28;20131;-51
2022/01/06 05:15:43;;;;;;;1.50;0.95;;;;;;;16.54;64.95;97718.28;3096110;28;20050;-54
2022/01/06 05:17:15;;;;;;;0.80;0.75;;;;;;;16.61;64.73;97711.06;3096139;28;20050;-56
2022/01/06 05:18:47;;;;;;;0.43;0.40;;;;;;;16.67;64.83;97715.53;3095115;28;20136;-55
2022/01/06 05:20:25;;;;;;;0.32;0.32;;;;;;;16.73;64.71;97712.00;3094954;28;20984;-54
2022/01/06 05:21:58;;;;;;;0.43;0.40;;;;;;;16.81;64.50;97713.66;3093951;28;20049;-54
2022/01/06 05:23:30;;;;;;;0.55;0.55;;;;;;;16.88;64.39;97718.97;3095485;28;20047;-57
2022/01/06 05:25:04;;;;;;;0.47;0.40;;;;;;;16.93;64.47;97721.81;3096021;28;20508;-54
2022/01/06 05:26:35;;;;;;;0.45;0.38;;;;;;;16.98;64.27;97716.66;3094070;28;20613;-55
2022/01/06 05:28:07;;;;;;;0.57;0.38;;;;;;;17.02;64.27;97714.34;3095903;28;20475;-56
2022/01/06 05:29:38;;;;;;;0.93;0.50;;;;;;;17.05;64.18;97717.44;3096466;28;20524;-56
2022/01/06 05:31:10;;;;;;;0.20;0.20;;;;;;;17.09;64.33;97715.97;3093023;28;20189;-52
2022/01/06 05:32:41;;;;;;;0.32;0.32;;;;;;;17.10;64.07;97722.94;3093097;28;20577;-55
2022/01/06 05:34:13;;;;;;;1.30;0.40;;;;;;;17.12;64.00;97726.25;3096200;28;20072;-54
2022/01/06 05:35:45;;;;;;;0.70;0.70;;;;;;;17.16;64.05;97727.47;3091282;28;20289;-56
2022/01/06 05:37:17;;;;;;;0.20;0.20;;;;;;;17.18;64.03;97720.00;3095371;28;20058;-54
2022/01/06 05:38:49;;;;;;;0.57;0.57;;;;;;;17.21;63.99;97726.81;3094994;28;20046;-54
2022/01/06 05:40:22;;;;;;;0.30;0.20;;;;;;;17.23;63.87;97732.78;3094257;28;20146;-56
2022/01/06 05:41:54;;;;;;;0.38;0.30;;;;;;;17.26;63.98;97736.88;3094177;28;20050;-56
2022/01/06 05:43:27;;;;;;;0.70;0.70;;;;;;;17.28;63.92;97741.00;3094630;28;20169;-54
2022/01/06 05:44:59;;;;;;;0.40;0.40;;;;;;;17.29;63.89;97739.94;3095114;28;20050;-54
2022/01/06 05:46:31;;;;;;;0.45;0.30;;;;;;;17.30;63.86;97743.44;3096685;28;20140;-54
2022/01/06 05:48:03;;;;;;;0.40;0.40;;;;;;;17.31;63.78;97745.09;3098127;28;20638;-53
2022/01/06 05:49:35;;;;;;;0.63;0.20;;;;;;;17.34;63.75;97741.97;3098271;28;20074;-55
2022/01/06 05:51:07;;;;;;;0.40;0.32;;;;;;;17.33;63.68;97741.16;3095865;28;20058;-55
2022/01/06 05:52:38;;;;;;;0.28;0.28;;;;;;;17.36;63.80;97745.28;3098916;28;20105;-54
2022/01/06 05:54:10;;;;;;;0.30;0.30;;;;;;;17.36;63.68;97750.63;3096203;28;20108;-59
2022/01/06 05:55:44;;;;;;;0.70;0.40;;;;;;;17.37;63.60;97755.75;3094477;28;20069;-57
2022/01/06 05:57:16;;;;;;;0.32;0.30;;;;;;;17.39;63.54;97761.75;3095406;28;20054;-55
2022/01/06 05:58:48;;;;;;;1.45;0.65;;;;;;;17.41;63.50;97761.50;3093668;28;20046;-57
2022/01/06 06:00:19;;;;;;;0.57;0.57;;;;;;;17.41;63.50;97762.34;3098242;28;20054;-57
2022/01/06 06:01:51;;;;;;;0.60;0.47;;;;;;;17.41;63.55;97761.50;3089555;28;20052;-57
2022/01/06 06:03:27;;;;;;;0.40;0.40;;;;;;;17.43;63.59;97772.84;3091968;28;20054;-56
2022/01/06 06:04:59;;;;;;;0.40;0.30;;;;;;;17.40;63.44;97771.41;3095047;28;20400;-54
2022/01/06 06:06:30;;;;;;;0.30;0.30;;;;;;;17.43;63.41;97775.53;3095938;28;21371;-54
2022/01/06 06:08:02;;;;;;;0.32;0.32;;;;;;;17.43;63.40;97767.47;3095543;28;20062;-54
2022/01/06 06:09:34;;;;;;;0.30;0.30;;;;;;;17.43;63.44;97781.69;3097062;28;20057;-55
2022/01/06 06:11:08;;;;;;;0.20;0.20;;;;;;;17.44;63.33;97782.53;3095522;28;20042;-56
2022/01/06 06:12:40;;;;;;;0.30;0.17;;;;;;;17.45;63.37;97783.34;3091898;28;20052;-54
2022/01/06 06:14:11;;;;;;;0.40;0.35;;;;;;;17.42;63.52;97787.28;3090384;28;20058;-52
2022/01/06 06:15:43;;;;;;;0.40;0.35;;;;;;;17.43;63.54;97797.78;3096416;28;20054;-56
2022/01/06 06:17:15;;;;;;;0.20;0.20;;;;;;;17.42;63.33;97795.34;3087719;28;20054;-56
2022/01/06 06:18:47;;;;;;;0.43;0.43;;;;;;;17.41;63.45;97799.03;3094858;28;20132;-56
2022/01/06 06:20:19;;;;;;;0.70;0.40;;;;;;;17.40;63.49;97797.41;3095900;28;20046;-58
2022/01/06 06:21:51;;;;;;;0.35;0.35;;;;;;;17.40;63.51;97802.75;3093548;28;20046;-58
2022/01/06 06:23:23;;;;;;;0.35;0.22;;;;;;;17.38;63.54;97797.63;3093725;28;20050;-56
2022/01/06 06:24:55;;;;;;;0.20;0.20;;;;;;;17.38;63.46;97811.03;3096590;28;20050;-57
2022/01/06 06:26:28;;;;;;;0.38;0.38;;;;;;;17.38;63.49;97812.88;3090127;28;20053;-56
2022/01/06 06:28:01;;;;;;;0.30;0.30;;;;;;;17.37;63.55;97817.41;3093373;28;20526;-55
2022/01/06 06:29:33;;;;;;;0.20;0.20;;;;;;;17.38;63.55;97818.22;3094675;28;20108;-56
2022/01/06 06:31:04;;;;;;;0.45;0.35;;;;;;;17.36;63.49;97821.16;3098490;28;20535;-52
2022/01/06 06:32:36;;;;;;;0.47;0.47;;;;;;;17.36;63.48;97825.69;3091786;28;20041;-54
2022/01/06 06:34:10;;;;;;;0.20;0.20;;;;;;;17.34;63.53;97835.78;3096182;28;20049;-56
2022/01/06 06:35:42;;;;;;;0.40;0.28;;;;;;;17.33;63.62;97828.81;3088913;28;20046;-56
2022/01/06 06:37:13;;;;;;;0.20;0.20;;;;;;;17.32;63.57;97838.66;3088951;28;20046;-55
2022/01/06 06:38:45;;;;;;;0.30;0.30;;;;;;;17.32;63.63;97837.84;3095706;28;20778;-55
2022/01/06 06:40:19;;;;;;;0.25;0.20;;;;;;;17.33;63.46;97839.53;3092025;28;20045;-56
2022/01/06 06:41:52;;;;;;;0.30;0.30;;;;;;;17.32;63.58;97849.41;3095890;28;20038;-57
2022/01/06 06:43:24;;;;;;;1.23;0.52;;;;;;;17.31;63.61;97857.66;3096781;28;20057;-52
2022/01/06 06:44:56;;;;;;;0.80;0.45;;;;;;;17.30;63.63;97850.66;3097384;28;20054;-53
2022/01/06 06:46:28;;;;;;;0.20;0.20;;;;;;;17.30;63.61;97854.16;3095223;28;20042;-52
2022/01/06 06:48:00;;;;;;;0.63;0.40;;;;;;;17.30;63.60;97858.69;3099402;28;20077;-55
2022/01/06 06:49:32;;;;;;;0.30;0.30;;;;;;;17.31;63.47;97857.66;3094129;28;20054;-51
2022/01/06 06:51:04;;;;;;;0.30;0.30;;;;;;;17.29;63.60;97854.38;3096490;28;20520;-55
2022/01/06 06:52:36;;;;;;;0.50;0.45;;;;;;;17.28;63.60;97855.41;3085417;28;20054;-54
2022/01/06 06:54:08;;;;;;;0.32;0.32;;;;;;;17.28;63.56;97858.09;3095051;28;20041;-57
2022/01/06 06:55:40;;;;;;;0.30;0.30;;;;;;;17.26;63.72;97855.63;3094932;28;20058;-54
2022/01/06 06:57:13;;;;;;;0.30;0.30;;;;;;;17.26;63.64;97854.81;3094831;28;20562;-53
2022/01/06 06:58:45;;;;;;;0.38;0.38;;;;;;;17.24;63.53;97852.31;3092581;28;20054;-52
2022/01/06 07:00:18;;;;;;;0.25;0.25;;;;;;;17.23;63.62;97850.69;3094410;28;20121;-55
2022/01/06 07:01:50;;;;;;;0.38;0.20;;;;;;;17.23;63.38;97852.56;3099691;28;20604;-56
2022/01/06 07:03:21;;;;;;;0.20;0.20;;;;;;;17.21;63.64;97847.38;3095827;28;20038;-53
2022/01/06 07:04:53;;;;;;;0.22;0.22;;;;;;;17.20;63.68;97851.94;3096568;28;20045;-57
2022/01/06 07:06:25;;;;;;;0.22;0.22;;;;;;;17.20;63.69;97864.50;3101545;28;20131;-53
2022/01/06 07:07:57;;;;;;;0.25;0.20;;;;;;;17.18;63.67;97859.34;3099886;28;20057;-53
2022/01/06 07:09:29;;;;;;;0.93;0.73;;;;;;;17.18;63.68;97859.34;3095939;28;20051;-53
2022/01/06 07:11:01;;;;;;;0.22;0.20;;;;;;;17.18;63.78;97858.53;3096060;28;20057;-54
2022/01/06 07:12:37;;;;;;;0.45;0.40;;;;;;;17.18;63.71;97858.53;3098577;28;20050;-56
2022/01/06 07:14:09;;;;;;;0.30;0.30;;;;;;;17.19;63.65;97869.06;3103055;28;20050;-57
2022/01/06 07:15:41;;;;;;;0.68;0.50;;;;;;;17.22;63.67;97862.47;3101478;28;20060;-54
2022/01/06 07:17:13;;;;;;;0.20;0.20;;;;;;;17.25;63.60;97869.25;3100899;28;20080;-56
2022/01/06 07:18:45;;;;;;;0.75;0.32;;;;;;;17.27;63.40;97875.19;3098636;28;20061;-57
2022/01/06 07:20:16;;;;;;;0.35;0.30;;;;;;;17.29;63.53;97865.91;3101571;28;20050;-57
2022/01/06 07:21:48;;;;;;;0.50;0.38;;;;;;;17.31;63.43;97863.03;3100911;28;20053;-56